Time;durP1;ratioP1;P1;durP2;ratioP2;P2;SDS_P1;SDS_P2;PMS_P1;PMS_P2;Temp;Humidity;BMP_temperature;BMP_pressure;BME280_temperature;BME280_humidity;BME280_pressure;Samples;Min_cycle;Max_cycle;Signal;HPM_P1;HPM_P2
2021/08/15 00:00:16;;;;;;;15.30;14.00;;;;;24.00;100683.00;;;;2063039;28;20305;-53
2021/08/15 00:01:17;;;;;;;15.07;13.70;;;;;24.00;100677.00;;;;2063624;28;20227;-52
2021/08/15 00:02:17;;;;;;;14.63;13.33;;;;;24.00;100669.00;;;;2063228;28;20219;-53
2021/08/15 00:03:17;;;;;;;15.10;13.57;;;;;24.00;100671.00;;;;2063542;28;20266;-52
2021/08/15 00:04:18;;;;;;;15.33;14.00;;;;;24.00;100680.00;;;;2063467;28;20233;-53
2021/08/15 00:05:18;;;;;;;15.40;14.00;;;;;24.00;100674.00;;;;2063063;28;20688;-53
2021/08/15 00:06:18;;;;;;;14.80;13.40;;;;;24.00;100675.00;;;;2061383;28;20231;-52
2021/08/15 00:07:19;;;;;;;15.60;14.00;;;;;24.00;100672.00;;;;2062053;28;20261;-53
2021/08/15 00:08:19;;;;;;;14.63;13.33;;;;;24.00;100676.00;;;;2059725;28;20313;-52
2021/08/15 00:09:20;;;;;;;16.00;14.43;;;;;24.00;100674.00;;;;2061642;28;20222;-52
2021/08/15 00:10:20;;;;;;;15.10;13.70;;;;;24.00;100667.00;;;;2062413;28;20318;-52
2021/08/15 00:11:21;;;;;;;15.43;14.10;;;;;24.00;100671.00;;;;2063475;28;20277;-53
2021/08/15 00:12:21;;;;;;;16.07;14.57;;;;;23.90;100670.00;;;;2061033;28;20230;-53
2021/08/15 00:13:21;;;;;;;15.87;14.47;;;;;24.00;100669.00;;;;2062136;28;20217;-52
2021/08/15 00:14:22;;;;;;;14.70;13.40;;;;;24.00;100668.00;;;;2061714;28;20936;-52
2021/08/15 00:15:22;;;;;;;16.07;14.47;;;;;24.00;100673.00;;;;2070190;28;20683;-53
2021/08/15 00:16:23;;;;;;;14.00;12.70;;;;;24.00;100669.00;;;;2069729;28;20683;-53
2021/08/15 00:17:23;;;;;;;14.50;13.23;;;;;24.00;100670.00;;;;2070347;28;20264;-53
2021/08/15 00:18:24;;;;;;;14.83;13.53;;;;;23.90;100666.00;;;;2064388;28;20226;-53
2021/08/15 00:19:24;;;;;;;14.70;13.50;;;;;24.00;100668.00;;;;2064358;28;20274;-52
2021/08/15 00:20:24;;;;;;;15.50;14.13;;;;;23.80;100662.00;;;;2063268;28;20696;-52
2021/08/15 00:21:25;;;;;;;14.70;13.40;;;;;23.80;100659.00;;;;2059595;28;20225;-53
2021/08/15 00:22:25;;;;;;;15.10;13.80;;;;;24.00;100663.00;;;;2062949;28;20294;-52
2021/08/15 00:23:25;;;;;;;14.40;13.13;;;;;24.00;100662.00;;;;2066490;28;20226;-53
2021/08/15 00:24:26;;;;;;;14.70;13.40;;;;;24.00;100655.00;;;;2062821;28;20323;-52
2021/08/15 00:25:27;;;;;;;13.63;12.43;;;;;24.00;100656.00;;;;2063113;28;20223;-53
2021/08/15 00:26:27;;;;;;;15.00;13.60;;;;;24.00;100663.00;;;;2064945;28;20227;-52
2021/08/15 00:27:27;;;;;;;13.70;12.50;;;;;23.90;100664.00;;;;2071202;28;20214;-53
2021/08/15 00:28:28;;;;;;;15.20;13.80;;;;;23.90;100661.00;;;;2067517;28;20220;-53
2021/08/15 00:29:28;;;;;;;14.67;13.27;;;;;23.90;100660.00;;;;2078418;28;20213;-53
2021/08/15 00:30:29;;;;;;;14.68;13.38;;;;;23.90;100660.00;;;;2064292;28;20727;-52
2021/08/15 00:31:30;;;;;;;13.83;12.63;;;;;23.90;100663.00;;;;2071557;28;23071;-53
2021/08/15 00:32:30;;;;;;;14.73;13.30;;;;;24.00;100663.00;;;;2071435;28;20214;-52
2021/08/15 00:33:31;;;;;;;14.77;13.47;;;;;23.90;100663.00;;;;2071552;28;20556;-53
2021/08/15 00:34:32;;;;;;;13.90;12.70;;;;;23.90;100656.00;;;;2066301;28;20221;-52
2021/08/15 00:35:32;;;;;;;14.73;13.43;;;;;23.90;100656.00;;;;2064185;28;20588;-53
2021/08/15 00:36:33;;;;;;;14.40;13.20;;;;;23.90;100654.00;;;;2061131;28;20308;-52
2021/08/15 00:37:34;;;;;;;14.70;13.20;;;;;23.90;100645.00;;;;2063075;28;20565;-53
2021/08/15 00:38:34;;;;;;;14.27;12.85;;;;;23.90;100651.00;;;;2068047;28;20210;-53
2021/08/15 00:39:35;;;;;;;14.90;13.60;;;;;23.90;100641.00;;;;2069258;28;20881;-53
2021/08/15 00:40:35;;;;;;;14.63;13.33;;;;;23.90;100646.00;;;;2064067;28;20265;-53
2021/08/15 00:41:35;;;;;;;12.83;11.73;;;;;23.90;100649.00;;;;2067231;28;20279;-53
2021/08/15 00:42:36;;;;;;;13.27;12.07;;;;;23.90;100645.00;;;;2070869;28;20218;-54
2021/08/15 00:43:36;;;;;;;13.17;11.90;;;;;23.90;100638.00;;;;2071033;28;20210;-52
2021/08/15 00:44:36;;;;;;;13.27;12.17;;;;;23.90;100648.00;;;;2066985;28;20211;-53
2021/08/15 00:45:37;;;;;;;13.33;12.13;;;;;23.90;100642.00;;;;2062043;28;20290;-53
2021/08/15 00:46:38;;;;;;;14.07;12.67;;;;;23.90;100648.00;;;;2068355;28;20222;-54
2021/08/15 00:47:39;;;;;;;13.68;12.57;;;;;23.90;100644.00;;;;2070122;28;20214;-53
2021/08/15 00:48:40;;;;;;;13.77;12.57;;;;;23.90;100651.00;;;;2068739;28;20210;-53
2021/08/15 00:49:40;;;;;;;13.50;12.30;;;;;23.90;100645.00;;;;2070780;28;20304;-53
2021/08/15 00:50:40;;;;;;;14.63;13.33;;;;;23.90;100643.00;;;;2069876;28;20241;-53
2021/08/15 00:51:41;;;;;;;13.43;11.97;;;;;23.90;100644.00;;;;2067589;28;20229;-53
2021/08/15 00:52:41;;;;;;;13.23;12.07;;;;;23.90;100645.00;;;;2069293;28;20305;-52
2021/08/15 00:53:41;;;;;;;13.30;12.00;;;;;23.90;100639.00;;;;2065577;28;20676;-53
2021/08/15 00:54:42;;;;;;;13.97;12.77;;;;;23.90;100640.00;;;;2063089;28;20746;-53
2021/08/15 00:55:43;;;;;;;13.37;12.17;;;;;23.90;100638.00;;;;2066267;28;20929;-53
2021/08/15 00:56:48;;;;;;;14.07;12.80;;;;;23.90;100640.00;;;;2070519;28;20280;-52
2021/08/15 00:57:49;;;;;;;13.73;12.52;;;;;23.90;100638.00;;;;2057662;28;20693;-53
2021/08/15 00:58:50;;;;;;;13.87;12.63;;;;;23.90;100637.00;;;;2057786;28;20311;-53
2021/08/15 00:59:50;;;;;;;13.63;12.32;;;;;23.90;100642.00;;;;2066412;28;20207;-52
2021/08/15 01:00:51;;;;;;;12.90;11.80;;;;;23.90;100634.00;;;;2065269;28;20696;-53
2021/08/15 01:01:52;;;;;;;13.17;12.00;;;;;23.90;100637.00;;;;2058263;28;20692;-52
2021/08/15 01:02:52;;;;;;;12.97;11.73;;;;;23.90;100634.00;;;;2056297;28;20451;-53
2021/08/15 01:03:53;;;;;;;13.67;12.47;;;;;23.90;100633.00;;;;2070627;28;20976;-53
2021/08/15 01:04:53;;;;;;;12.67;11.57;;;;;23.90;100629.00;;;;2069381;28;20286;-52
2021/08/15 01:05:54;;;;;;;13.60;12.40;;;;;23.90;100633.00;;;;2064257;28;20219;-52
2021/08/15 01:06:55;;;;;;;13.38;12.27;;;;;23.90;100627.00;;;;2062321;28;20207;-53
2021/08/15 01:07:58;;;;;;;13.23;12.02;;;;;23.90;100624.00;;;;2063953;28;20211;-53
2021/08/15 01:09:00;;;;;;;12.65;11.52;;;;;23.90;100628.00;;;;2070081;28;20233;-52
2021/08/15 01:10:01;;;;;;;14.18;12.85;;;;;23.90;100630.00;;;;2066980;28;20776;-53
2021/08/15 01:11:01;;;;;;;13.07;11.80;;;;;23.90;100618.00;;;;2066540;28;20214;-53
2021/08/15 01:12:02;;;;;;;13.80;12.60;;;;;23.90;100622.00;;;;2064805;28;20203;-52
2021/08/15 01:13:03;;;;;;;12.60;11.50;;;;;23.90;100627.00;;;;2056964;28;20211;-52
2021/08/15 01:14:05;;;;;;;12.35;11.35;;;;;23.90;100624.00;;;;2054408;28;20888;-53
2021/08/15 01:15:08;;;;;;;13.75;12.35;;;;;23.90;100614.00;;;;2058634;28;20227;-52
2021/08/15 01:16:08;;;;;;;13.35;12.02;;;;;23.90;100614.00;;;;2063726;28;20211;-52
2021/08/15 01:17:08;;;;;;;13.20;12.07;;;;;23.90;100609.00;;;;2069596;28;20237;-52
2021/08/15 01:18:29;;;;;;;13.10;11.90;;;;;23.90;100615.00;;;;2059736;28;20271;-53
2021/08/15 01:19:33;;;;;;;11.85;10.85;;;;;23.90;100606.00;;;;2057361;28;20704;-53
2021/08/15 01:20:33;;;;;;;12.55;11.18;;;;;23.90;100610.00;;;;2062968;28;20218;-53
2021/08/15 01:21:37;;;;;;;12.77;11.57;;;;;23.90;100607.00;;;;2057998;28;20216;-52
2021/08/15 01:22:43;;;;;;;12.70;11.60;;;;;23.90;100604.00;;;;2055108;28;20228;-52
2021/08/15 01:23:44;;;;;;;12.50;11.50;;;;;23.90;100611.00;;;;2066988;28;20218;-53
2021/08/15 01:24:45;;;;;;;13.05;11.80;;;;;23.90;100610.00;;;;2070285;28;20217;-53
2021/08/15 01:25:45;;;;;;;13.00;11.70;;;;;23.90;100607.00;;;;2070293;28;20218;-53
2021/08/15 01:26:46;;;;;;;12.97;11.70;;;;;23.90;100609.00;;;;2069023;28;20229;-52
2021/08/15 01:27:46;;;;;;;11.83;10.67;;;;;23.90;100613.00;;;;2070274;28;20229;-52
2021/08/15 01:28:47;;;;;;;13.17;12.00;;;;;23.90;100609.00;;;;2062684;28;20690;-52
2021/08/15 01:29:48;;;;;;;11.90;10.80;;;;;23.90;100603.00;;;;2059042;28;20315;-52
2021/08/15 01:30:49;;;;;;;12.73;11.53;;;;;23.90;100606.00;;;;2058330;28;20274;-52
2021/08/15 01:31:50;;;;;;;12.32;11.23;;;;;23.90;100608.00;;;;2057436;28;20289;-54
2021/08/15 01:32:50;;;;;;;13.30;12.10;;;;;23.90;100594.00;;;;2055063;28;21057;-53
2021/08/15 01:33:51;;;;;;;12.47;11.37;;;;;23.90;100593.00;;;;2065838;28;20298;-53
2021/08/15 01:34:52;;;;;;;12.90;11.80;;;;;23.90;100601.00;;;;2066366;28;20215;-52
2021/08/15 01:35:53;;;;;;;12.77;11.63;;;;;23.90;100597.00;;;;2062938;28;20307;-53
2021/08/15 01:36:53;;;;;;;12.37;11.20;;;;;23.90;100594.00;;;;2066624;28;20235;-53
2021/08/15 01:37:55;;;;;;;12.90;11.70;;;;;23.90;100603.00;;;;2067105;28;20449;-52
2021/08/15 01:38:56;;;;;;;12.55;11.45;;;;;23.90;100599.00;;;;2063009;28;20222;-53
2021/08/15 01:40:02;;;;;;;12.07;11.07;;;;;23.90;100598.00;;;;2070316;28;20221;-53
2021/08/15 01:41:02;;;;;;;11.27;10.27;;;;;23.90;100597.00;;;;2065087;28;20214;-53
2021/08/15 01:42:03;;;;;;;12.73;11.53;;;;;23.90;100599.00;;;;2067068;28;20210;-52
2021/08/15 01:43:03;;;;;;;12.20;11.07;;;;;23.90;100597.00;;;;2057607;28;20436;-51
2021/08/15 01:44:04;;;;;;;12.63;11.50;;;;;23.90;100601.00;;;;2062152;28;20302;-53
2021/08/15 01:45:10;;;;;;;13.13;11.47;;;;;23.90;100596.00;;;;2057113;28;20716;-53
2021/08/15 01:46:10;;;;;;;15.60;11.73;;;;;23.90;100598.00;;;;2054164;28;20310;-53
2021/08/15 01:47:11;;;;;;;12.20;11.00;;;;;23.90;100595.00;;;;2053708;28;20259;-53
2021/08/15 01:48:11;;;;;;;12.47;11.13;;;;;23.90;100592.00;;;;2067238;28;20606;-52
2021/08/15 01:49:12;;;;;;;12.50;11.40;;;;;23.90;100590.00;;;;2062107;28;20225;-52
2021/08/15 01:50:12;;;;;;;12.10;11.10;;;;;23.90;100586.00;;;;2058656;28;20211;-53
2021/08/15 01:51:16;;;;;;;11.20;10.27;;;;;23.90;100590.00;;;;2057112;28;20219;-53
2021/08/15 01:52:17;;;;;;;13.05;11.85;;;;;23.80;100588.00;;;;2058033;28;20295;-53
2021/08/15 01:53:19;;;;;;;12.50;11.40;;;;;23.80;100591.00;;;;2054234;28;20234;-52
2021/08/15 01:54:20;;;;;;;13.23;11.95;;;;;23.80;100587.00;;;;2054972;28;20218;-53
2021/08/15 01:55:20;;;;;;;12.50;11.27;;;;;23.90;100581.00;;;;2054937;28;20219;-53
2021/08/15 01:56:21;;;;;;;12.17;11.07;;;;;23.90;100589.00;;;;2061340;28;20219;-53
2021/08/15 01:57:21;;;;;;;12.53;11.50;;;;;23.90;100588.00;;;;2055967;28;20297;-52
2021/08/15 01:58:21;;;;;;;11.43;10.30;;;;;23.80;100582.00;;;;2062533;28;20215;-53
2021/08/15 01:59:26;;;;;;;12.50;11.40;;;;;23.80;100583.00;;;;2063064;28;20215;-53
2021/08/15 02:00:27;;;;;;;11.88;10.77;;;;;23.90;100588.00;;;;2060227;28;20746;-52
2021/08/15 02:01:27;;;;;;;12.13;11.03;;;;;23.90;100575.00;;;;2055374;28;20311;-53
2021/08/15 02:02:28;;;;;;;11.67;10.57;;;;;23.90;100574.00;;;;2060876;28;20214;-53
2021/08/15 02:03:28;;;;;;;12.67;11.57;;;;;23.90;100581.00;;;;2062572;28;20305;-53
2021/08/15 02:04:29;;;;;;;11.93;10.83;;;;;23.90;100581.00;;;;2054743;28;20215;-53
2021/08/15 02:05:29;;;;;;;12.10;10.90;;;;;23.80;100573.00;;;;2059177;28;20293;-54
2021/08/15 02:06:30;;;;;;;11.13;10.13;;;;;23.80;100569.00;;;;2063486;28;20699;-53
2021/08/15 02:07:30;;;;;;;11.00;10.10;;;;;23.80;100576.00;;;;2063982;28;20231;-53
2021/08/15 02:08:31;;;;;;;11.90;10.80;;;;;23.80;100574.00;;;;2061806;28;20982;-53
2021/08/15 02:09:31;;;;;;;11.40;10.40;;;;;23.80;100581.00;;;;2059318;28;20659;-52
2021/08/15 02:10:32;;;;;;;12.20;11.10;;;;;23.80;100581.00;;;;2055499;28;20220;-52
2021/08/15 02:11:33;;;;;;;11.57;10.48;;;;;23.80;100573.00;;;;2062111;28;20262;-53
2021/08/15 02:12:33;;;;;;;11.73;10.73;;;;;23.80;100570.00;;;;2061979;28;20211;-53
2021/08/15 02:13:34;;;;;;;11.33;10.43;;;;;23.80;100580.00;;;;2062095;28;20215;-53
2021/08/15 02:14:35;;;;;;;12.00;10.97;;;;;23.80;100576.00;;;;2062282;28;20214;-53
2021/08/15 02:15:35;;;;;;;11.40;10.50;;;;;23.80;100577.00;;;;2059363;28;20215;-53
2021/08/15 02:16:36;;;;;;;11.90;10.90;;;;;23.80;100571.00;;;;2063478;28;20493;-53
2021/08/15 02:17:36;;;;;;;12.65;10.90;;;;;23.80;100574.00;;;;2062248;28;20222;-53
2021/08/15 02:18:37;;;;;;;12.03;10.93;;;;;23.80;100567.00;;;;2059233;28;20671;-52
2021/08/15 02:19:37;;;;;;;10.70;9.70;;;;;23.80;100575.00;;;;2059330;28;21059;-53
2021/08/15 02:20:38;;;;;;;11.40;10.40;;;;;23.80;100577.00;;;;2057336;28;20219;-53
2021/08/15 02:21:38;;;;;;;11.67;10.57;;;;;23.80;100569.00;;;;2056983;28;20640;-52
2021/08/15 02:22:39;;;;;;;11.07;10.10;;;;;23.80;100574.00;;;;2059330;28;20299;-53
2021/08/15 02:23:39;;;;;;;11.67;10.60;;;;;23.80;100572.00;;;;2063898;28;21126;-53
2021/08/15 02:24:41;;;;;;;11.70;10.60;;;;;23.80;100569.00;;;;2063539;28;20217;-53
2021/08/15 02:25:41;;;;;;;11.55;10.45;;;;;23.80;100572.00;;;;2065614;28;20326;-53
2021/08/15 02:26:42;;;;;;;11.50;10.30;;;;;23.80;100567.00;;;;2063097;28;21082;-52
2021/08/15 02:27:42;;;;;;;11.73;10.63;;;;;23.80;100572.00;;;;2063029;28;20210;-53
2021/08/15 02:28:43;;;;;;;12.73;11.47;;;;;23.80;100571.00;;;;2058688;28;20211;-52
2021/08/15 02:29:43;;;;;;;12.03;10.97;;;;;23.80;100571.00;;;;2061077;28;20223;-53
2021/08/15 02:30:44;;;;;;;11.57;10.47;;;;;23.80;100573.00;;;;2057296;28;20212;-53
2021/08/15 02:31:44;;;;;;;11.33;10.33;;;;;23.80;100566.00;;;;2056708;28;20220;-53
2021/08/15 02:32:44;;;;;;;11.00;10.00;;;;;23.80;100567.00;;;;2057968;28;20250;-53
2021/08/15 02:33:46;;;;;;;11.37;10.37;;;;;23.80;100565.00;;;;2057540;28;20216;-53
2021/08/15 02:34:46;;;;;;;11.20;10.23;;;;;23.80;100566.00;;;;2053934;28;20219;-53
2021/08/15 02:35:46;;;;;;;11.17;10.10;;;;;23.80;100565.00;;;;2059449;28;20226;-52
2021/08/15 02:36:47;;;;;;;11.57;10.53;;;;;23.80;100563.00;;;;2055672;28;20280;-52
2021/08/15 02:37:49;;;;;;;11.70;10.47;;;;;23.80;100560.00;;;;2057596;28;20211;-53
2021/08/15 02:38:49;;;;;;;11.75;10.75;;;;;23.80;100560.00;;;;2057889;28;21458;-53
2021/08/15 02:39:53;;;;;;;11.47;10.47;;;;;23.80;100553.00;;;;2058567;28;20226;-52
2021/08/15 02:40:53;;;;;;;10.95;9.98;;;;;23.80;100553.00;;;;2061990;28;20225;-52
2021/08/15 02:41:53;;;;;;;10.80;9.80;;;;;23.80;100549.00;;;;2062498;28;20588;-52
2021/08/15 02:42:55;;;;;;;11.20;10.20;;;;;23.80;100549.00;;;;2059595;28;20299;-52
2021/08/15 02:43:55;;;;;;;11.85;10.85;;;;;23.80;100543.00;;;;2054882;28;20211;-53
2021/08/15 02:44:56;;;;;;;11.60;10.60;;;;;23.80;100544.00;;;;2058326;28;20215;-53
2021/08/15 02:45:56;;;;;;;11.70;10.60;;;;;23.80;100537.00;;;;2055757;28;20219;-53
2021/08/15 02:46:57;;;;;;;10.97;10.03;;;;;23.80;100540.00;;;;2063730;28;20294;-53
2021/08/15 02:47:57;;;;;;;11.60;10.50;;;;;23.80;100534.00;;;;2062083;28;20228;-53
2021/08/15 02:48:58;;;;;;;11.33;10.23;;;;;23.80;100539.00;;;;2063587;28;20549;-53
2021/08/15 02:49:59;;;;;;;10.90;10.00;;;;;23.80;100538.00;;;;2059254;28;20215;-53
2021/08/15 02:50:59;;;;;;;11.47;10.57;;;;;23.80;100537.00;;;;2062357;28;20482;-53
2021/08/15 02:51:59;;;;;;;11.30;10.30;;;;;23.80;100539.00;;;;2063343;28;20218;-53
2021/08/15 02:53:01;;;;;;;10.87;9.77;;;;;23.80;100531.00;;;;2054673;28;20226;-52
2021/08/15 02:54:01;;;;;;;10.85;9.95;;;;;23.80;100537.00;;;;2055583;28;20218;-53
2021/08/15 02:55:02;;;;;;;11.33;10.33;;;;;23.80;100533.00;;;;2059127;28;20232;-53
2021/08/15 02:56:03;;;;;;;11.47;10.47;;;;;23.80;100528.00;;;;2061812;28;20227;-55
2021/08/15 02:57:03;;;;;;;11.18;10.18;;;;;23.80;100533.00;;;;2059657;28;20215;-53
2021/08/15 02:58:04;;;;;;;11.10;10.10;;;;;23.80;100532.00;;;;2058861;28;20751;-53
2021/08/15 02:59:04;;;;;;;11.00;10.10;;;;;23.80;100534.00;;;;2059532;28;20494;-53
2021/08/15 03:00:06;;;;;;;10.50;9.60;;;;;23.80;100527.00;;;;2059910;28;20290;-53
2021/08/15 03:01:06;;;;;;;11.13;10.23;;;;;23.80;100533.00;;;;2059254;28;20218;-53
2021/08/15 03:02:14;;;;;;;11.47;10.50;;;;;23.80;100529.00;;;;2054909;28;20212;-53
2021/08/15 03:03:15;;;;;;;12.18;11.07;;;;;23.80;100533.00;;;;2055414;28;20242;-52
2021/08/15 03:04:15;;;;;;;11.03;9.97;;;;;23.80;100524.00;;;;2063526;28;20648;-53
2021/08/15 03:05:16;;;;;;;11.37;10.37;;;;;23.80;100532.00;;;;2063154;28;20214;-52
2021/08/15 03:06:16;;;;;;;11.63;10.53;;;;;23.80;100525.00;;;;2062939;28;20252;-52
2021/08/15 03:07:17;;;;;;;10.93;9.93;;;;;23.80;100520.00;;;;2061582;28;20211;-53
2021/08/15 03:08:17;;;;;;;11.00;10.00;;;;;23.80;100514.00;;;;2054743;28;20224;-53
2021/08/15 03:09:17;;;;;;;11.10;10.20;;;;;23.80;100515.00;;;;2055692;28;20353;-52
2021/08/15 03:10:18;;;;;;;10.90;10.00;;;;;23.80;100517.00;;;;2057305;28;20219;-53
2021/08/15 03:11:18;;;;;;;10.10;9.10;;;;;23.80;100514.00;;;;2057193;28;20243;-53
2021/08/15 03:12:19;;;;;;;11.00;10.10;;;;;23.80;100513.00;;;;2057530;28;20633;-53
2021/08/15 03:13:19;;;;;;;11.03;10.03;;;;;23.80;100517.00;;;;2057935;28;20735;-53
2021/08/15 03:14:20;;;;;;;11.00;10.10;;;;;23.70;100514.00;;;;2063434;28;20246;-53
2021/08/15 03:15:20;;;;;;;10.80;9.90;;;;;23.80;100516.00;;;;2067591;28;20460;-53
2021/08/15 03:16:20;;;;;;;11.80;10.70;;;;;23.80;100516.00;;;;2059400;28;20263;-52
2021/08/15 03:17:21;;;;;;;11.47;10.37;;;;;23.80;100509.00;;;;2062313;28;20842;-52
2021/08/15 03:18:22;;;;;;;11.60;10.50;;;;;23.80;100509.00;;;;2061563;28;20223;-53
2021/08/15 03:19:22;;;;;;;11.37;10.37;;;;;23.80;100512.00;;;;2064671;28;20277;-52
2021/08/15 03:20:22;;;;;;;12.13;10.53;;;;;23.70;100505.00;;;;2064067;28;21006;-53
2021/08/15 03:21:29;;;;;;;11.40;10.50;;;;;23.80;100504.00;;;;2066189;28;20219;-53
2021/08/15 03:22:30;;;;;;;12.18;11.00;;;;;23.80;100499.00;;;;2068565;28;20224;-53
2021/08/15 03:23:30;;;;;;;10.87;9.90;;;;;23.80;100507.00;;;;2084934;28;20238;-53
2021/08/15 03:24:31;;;;;;;10.30;9.50;;;;;23.80;100503.00;;;;2081634;28;20214;-53
2021/08/15 03:25:31;;;;;;;10.57;9.77;;;;;23.80;100496.00;;;;2071809;28;20276;-52
2021/08/15 03:26:32;;;;;;;10.70;9.80;;;;;23.80;100513.00;;;;2069858;28;20229;-52
2021/08/15 03:27:32;;;;;;;11.13;10.13;;;;;23.80;100497.00;;;;2079418;28;20244;-54
2021/08/15 03:28:32;;;;;;;10.87;9.87;;;;;23.80;100504.00;;;;2079489;28;20220;-53
2021/08/15 03:29:33;;;;;;;10.70;9.63;;;;;23.70;100502.00;;;;2064052;28;20218;-53
2021/08/15 03:30:33;;;;;;;10.73;9.80;;;;;23.80;100497.00;;;;2067430;28;20275;-53
2021/08/15 03:31:34;;;;;;;10.20;9.30;;;;;23.70;100499.00;;;;2064558;28;20628;-53
2021/08/15 03:32:34;;;;;;;10.40;9.50;;;;;23.80;100497.00;;;;2066899;28;20305;-53
2021/08/15 03:33:34;;;;;;;10.07;9.17;;;;;23.70;100497.00;;;;2063980;28;20218;-52
2021/08/15 03:34:35;;;;;;;11.07;10.10;;;;;23.70;100502.00;;;;2063907;28;20223;-53
2021/08/15 03:35:35;;;;;;;10.50;9.50;;;;;23.70;100502.00;;;;2059603;28;20222;-54
2021/08/15 03:36:35;;;;;;;11.07;10.17;;;;;23.70;100502.00;;;;2063662;28;20912;-52
2021/08/15 03:37:36;;;;;;;11.27;10.17;;;;;23.70;100470.00;;;;2063812;28;20219;-53
2021/08/15 03:38:36;;;;;;;10.53;9.60;;;;;23.70;100494.00;;;;2063417;28;20590;-53
2021/08/15 03:39:37;;;;;;;10.40;9.50;;;;;23.70;100498.00;;;;2063788;28;20226;-53
2021/08/15 03:40:37;;;;;;;10.53;9.60;;;;;23.70;100500.00;;;;2068960;28;20214;-52
2021/08/15 03:41:38;;;;;;;11.20;10.10;;;;;23.70;100495.00;;;;2071951;28;20591;-54
2021/08/15 03:42:39;;;;;;;10.33;9.47;;;;;23.70;100492.00;;;;2065043;28;20234;-55
2021/08/15 03:43:39;;;;;;;11.93;10.77;;;;;23.70;100485.00;;;;2063867;28;20225;-54
2021/08/15 03:44:40;;;;;;;10.27;9.40;;;;;23.70;100494.00;;;;2064125;28;20211;-53
2021/08/15 03:45:40;;;;;;;10.50;9.60;;;;;23.70;100486.00;;;;2071769;28;20242;-53
2021/08/15 03:46:41;;;;;;;11.20;10.10;;;;;23.70;100490.00;;;;2071124;28;20679;-54
2021/08/15 03:47:41;;;;;;;11.20;10.10;;;;;23.70;100492.00;;;;2071078;28;20620;-53
2021/08/15 03:48:41;;;;;;;10.37;9.47;;;;;23.70;100486.00;;;;2065319;28;20207;-53
2021/08/15 03:49:42;;;;;;;10.23;9.40;;;;;23.70;100489.00;;;;2065650;28;20218;-52
2021/08/15 03:50:42;;;;;;;10.60;9.80;;;;;23.70;100489.00;;;;2067275;28;20225;-52
2021/08/15 03:51:43;;;;;;;10.17;9.37;;;;;23.70;100484.00;;;;2067638;28;20622;-52
2021/08/15 03:52:43;;;;;;;10.27;9.37;;;;;23.70;100480.00;;;;2063732;28;20218;-53
2021/08/15 03:53:44;;;;;;;10.20;9.30;;;;;23.70;100476.00;;;;2066241;28;20791;-52
2021/08/15 03:54:44;;;;;;;10.20;9.30;;;;;23.70;100476.00;;;;2063196;28;20210;-52
2021/08/15 03:55:45;;;;;;;10.23;9.40;;;;;23.70;100476.00;;;;2062048;28;20680;-52
2021/08/15 03:56:47;;;;;;;9.93;9.13;;;;;23.70;100477.00;;;;2069939;28;20625;-52
2021/08/15 03:57:48;;;;;;;10.95;9.88;;;;;23.70;100478.00;;;;2063773;28;20662;-52
2021/08/15 03:58:48;;;;;;;10.27;9.37;;;;;23.70;100478.00;;;;2059348;28;20219;-52
2021/08/15 03:59:49;;;;;;;10.63;9.67;;;;;23.70;100474.00;;;;2063366;28;20211;-52
2021/08/15 04:00:49;;;;;;;10.63;9.73;;;;;23.70;100476.00;;;;2067164;28;20223;-53
2021/08/15 04:01:50;;;;;;;10.43;9.60;;;;;23.70;100475.00;;;;2071309;28;20702;-52
2021/08/15 04:02:50;;;;;;;9.80;9.00;;;;;23.70;100472.00;;;;2064246;28;20623;-53
2021/08/15 04:03:51;;;;;;;10.50;9.60;;;;;23.70;100476.00;;;;2066821;28;20209;-52
2021/08/15 04:04:51;;;;;;;10.43;9.53;;;;;23.70;100479.00;;;;2071774;28;20206;-53
2021/08/15 04:05:55;;;;;;;12.07;10.97;;;;;23.70;100476.00;;;;2069180;28;20237;-53
2021/08/15 04:06:56;;;;;;;10.85;9.93;;;;;23.70;100474.00;;;;2066455;28;20203;-53
2021/08/15 04:07:56;;;;;;;9.73;8.87;;;;;23.70;100472.00;;;;2065933;28;20286;-52
2021/08/15 04:08:56;;;;;;;10.23;9.33;;;;;23.70;100472.00;;;;2071686;28;20222;-53
2021/08/15 04:09:57;;;;;;;10.67;9.77;;;;;23.70;100474.00;;;;2084113;28;20592;-53
2021/08/15 04:10:57;;;;;;;11.00;9.90;;;;;23.70;100475.00;;;;2075873;28;20272;-53
2021/08/15 04:11:58;;;;;;;9.77;8.93;;;;;23.70;100473.00;;;;2061405;28;20215;-53
2021/08/15 04:12:58;;;;;;;10.40;9.50;;;;;23.70;100469.00;;;;2064592;28;20199;-53
2021/08/15 04:13:59;;;;;;;9.80;8.97;;;;;23.70;100474.00;;;;2071762;28;20757;-52
2021/08/15 04:15:00;;;;;;;10.17;9.17;;;;;23.70;100469.00;;;;2068486;28;20198;-53
2021/08/15 04:16:00;;;;;;;10.00;9.07;;;;;23.70;100476.00;;;;2071552;28;20508;-53
2021/08/15 04:17:00;;;;;;;10.10;9.20;;;;;23.70;100478.00;;;;2064835;28;20677;-52
2021/08/15 04:18:01;;;;;;;10.37;9.40;;;;;23.70;100477.00;;;;2063476;28;20668;-52
2021/08/15 04:19:02;;;;;;;9.43;8.60;;;;;23.70;100481.00;;;;2067434;28;20202;-52
2021/08/15 04:20:03;;;;;;;10.43;9.43;;;;;23.70;100475.00;;;;2063042;28;20194;-52
2021/08/15 04:21:04;;;;;;;10.50;9.60;;;;;23.70;100481.00;;;;2066135;28;20199;-53
2021/08/15 04:22:04;;;;;;;10.33;9.43;;;;;23.70;100474.00;;;;2066388;28;20671;-52
2021/08/15 04:23:05;;;;;;;9.90;9.10;;;;;23.70;100481.00;;;;2066179;28;20206;-53
2021/08/15 04:24:06;;;;;;;9.43;8.63;;;;;23.70;100479.00;;;;2071320;28;20210;-52
2021/08/15 04:25:07;;;;;;;9.50;8.70;;;;;23.70;100477.00;;;;2066920;28;20274;-53
2021/08/15 04:26:07;;;;;;;10.30;9.43;;;;;23.70;100480.00;;;;2064226;28;20289;-52
2021/08/15 04:27:07;;;;;;;10.20;9.33;;;;;23.70;100483.00;;;;2066849;28;20473;-51
2021/08/15 04:28:07;;;;;;;10.93;9.83;;;;;23.70;100478.00;;;;2062017;28;20692;-52
2021/08/15 04:29:10;;;;;;;9.77;8.93;;;;;23.70;100486.00;;;;2064179;28;20719;-52
2021/08/15 04:30:12;;;;;;;10.02;9.23;;;;;23.60;100482.00;;;;2063986;28;20254;-53
2021/08/15 04:31:12;;;;;;;10.50;9.50;;;;;23.70;100488.00;;;;2070145;28;20210;-53
2021/08/15 04:32:13;;;;;;;10.47;9.20;;;;;23.70;100480.00;;;;2063095;28;20702;-52
2021/08/15 04:33:18;;;;;;;10.43;9.53;;;;;23.70;100490.00;;;;2059588;28;20203;-52
2021/08/15 04:34:18;;;;;;;10.70;9.80;;;;;23.70;100489.00;;;;2066656;28;20210;-56
2021/08/15 04:35:18;;;;;;;10.47;9.60;;;;;23.70;100481.00;;;;2065983;28;20651;-53
2021/08/15 04:36:19;;;;;;;10.17;9.37;;;;;23.70;100481.00;;;;2069962;28;20213;-52
2021/08/15 04:37:20;;;;;;;10.37;9.47;;;;;23.70;100477.00;;;;2063953;28;20647;-53
2021/08/15 04:38:20;;;;;;;10.37;9.50;;;;;23.70;100483.00;;;;2067360;28;20826;-53
2021/08/15 04:39:21;;;;;;;10.17;9.27;;;;;23.70;100477.00;;;;2067238;28;20461;-53
2021/08/15 04:40:21;;;;;;;9.90;9.00;;;;;23.70;100480.00;;;;2062984;28;20214;-52
2021/08/15 04:41:22;;;;;;;9.80;8.90;;;;;23.70;100490.00;;;;2063485;28;20210;-52
2021/08/15 04:42:22;;;;;;;10.17;9.37;;;;;23.70;100480.00;;;;2063251;28;20293;-52
2021/08/15 04:43:22;;;;;;;9.97;9.10;;;;;23.70;100488.00;;;;2063185;28;20215;-52
2021/08/15 04:44:23;;;;;;;9.87;9.07;;;;;23.70;100484.00;;;;2063128;28;20203;-53
2021/08/15 04:45:23;;;;;;;10.37;9.40;;;;;23.70;100480.00;;;;2062692;28;20277;-53
2021/08/15 04:46:23;;;;;;;11.20;10.10;;;;;23.70;100478.00;;;;2063157;28;20580;-53
2021/08/15 04:47:24;;;;;;;10.07;9.17;;;;;23.70;100482.00;;;;2063229;28;20206;-53
2021/08/15 04:48:24;;;;;;;10.70;9.80;;;;;23.70;100480.00;;;;2069250;28;20687;-53
2021/08/15 04:49:24;;;;;;;11.20;10.20;;;;;23.70;100483.00;;;;2064619;28;20557;-53
2021/08/15 04:50:25;;;;;;;10.10;9.20;;;;;23.70;100485.00;;;;2063059;28;20222;-52
2021/08/15 04:51:25;;;;;;;9.50;8.70;;;;;23.70;100481.00;;;;2066638;28;20207;-52
2021/08/15 04:52:25;;;;;;;10.60;9.70;;;;;23.70;100481.00;;;;2067653;28;20210;-53
2021/08/15 04:53:27;;;;;;;11.00;9.90;;;;;23.70;100489.00;;;;2071286;28;20241;-54
2021/08/15 04:54:27;;;;;;;10.88;9.98;;;;;23.70;100495.00;;;;2071275;28;20221;-53